createdAt,value
2019-04-14T00:01:32.885Z,15.18
2019-04-14T00:04:05.629Z,13.55
2019-04-14T00:06:37.663Z,14.68
2019-04-14T00:09:12.600Z,17.05
2019-04-14T00:11:41.922Z,15.83
2019-04-14T00:14:12.045Z,15.00
2019-04-14T00:16:44.529Z,15.55
2019-04-14T00:19:15.611Z,15.88
2019-04-14T00:21:47.641Z,15.23
2019-04-14T00:24:18.435Z,16.30
2019-04-14T00:26:48.864Z,15.48
2019-04-14T00:29:19.522Z,15.70
2019-04-14T00:31:52.185Z,16.45
2019-04-14T00:34:26.859Z,14.20
2019-04-14T00:37:01.316Z,15.00
2019-04-14T00:39:48.961Z,15.80
2019-04-14T00:42:23.486Z,16.62
2019-04-14T00:44:58.043Z,16.15
2019-04-14T00:47:49.239Z,16.50
2019-04-14T00:50:08.013Z,14.87
2019-04-14T00:52:41.535Z,16.42
2019-04-14T00:55:11.890Z,17.27
2019-04-14T00:57:41.980Z,14.30
2019-04-14T01:00:13.652Z,16.48
2019-04-14T01:02:45.418Z,16.02
2019-04-14T01:05:17.414Z,16.95
2019-04-14T01:07:48.018Z,16.15
2019-04-14T01:10:19.137Z,14.90
2019-04-14T01:12:51.810Z,14.75
2019-04-14T01:15:22.267Z,16.32
2019-04-14T01:17:52.898Z,16.15
2019-04-14T01:20:25.278Z,16.20
2019-04-14T01:22:55.699Z,15.65
2019-04-14T01:25:26.055Z,16.60
2019-04-14T01:27:56.023Z,15.88
2019-04-14T01:30:26.283Z,16.70
2019-04-14T01:32:56.520Z,16.95
2019-04-14T01:35:27.094Z,16.15
2019-04-14T01:37:57.263Z,17.37
2019-04-14T01:40:29.245Z,17.62
2019-04-14T01:42:59.610Z,15.88
2019-04-14T01:45:29.706Z,14.75
2019-04-14T01:47:59.629Z,17.05
2019-04-14T01:50:41.493Z,17.32
2019-04-14T01:53:20.569Z,17.35
2019-04-14T01:55:59.199Z,16.37
2019-04-14T01:58:31.666Z,16.57
2019-04-14T02:01:12.728Z,16.20
2019-04-14T02:03:43.341Z,16.07
2019-04-14T02:06:15.677Z,17.15
2019-04-14T02:08:45.983Z,17.02
2019-04-14T02:11:18.352Z,18.67
2019-04-14T02:13:48.554Z,16.20
2019-04-14T02:16:30.211Z,16.75
2019-04-14T02:18:53.170Z,16.02
2019-04-14T02:21:22.278Z,15.68
2019-04-14T02:23:53.987Z,16.55
2019-04-14T02:26:24.148Z,16.15
2019-04-14T02:28:57.070Z,15.88
2019-04-14T02:31:52.905Z,16.00
2019-04-14T02:34:41.627Z,17.57
2019-04-14T02:37:02.812Z,17.85
2019-04-14T02:44:39.971Z,16.80
2019-04-14T02:47:18.343Z,17.40
2019-04-14T02:52:14.319Z,16.32
2019-04-14T02:57:16.924Z,18.23
2019-04-14T02:59:45.567Z,16.20
2019-04-14T03:02:23.214Z,18.12
2019-04-14T03:04:54.431Z,16.20
2019-04-14T03:07:21.535Z,17.50
2019-04-14T03:09:47.779Z,17.15
2019-04-14T03:12:25.023Z,16.05
2019-04-14T03:14:57.059Z,17.00
2019-04-14T03:17:36.862Z,17.10
2019-04-14T03:22:43.846Z,17.57
2019-04-14T03:25:11.591Z,16.40
2019-04-14T03:27:55.098Z,16.55
2019-04-14T03:33:32.864Z,16.23
2019-04-14T03:37:59.496Z,18.52
2019-04-14T03:43:24.460Z,18.62
2019-04-14T03:50:50.195Z,17.55
2019-04-14T03:55:55.422Z,17.40
2019-04-14T03:58:24.633Z,17.35
2019-04-14T04:00:55.986Z,17.98
2019-04-14T04:03:26.168Z,17.73
2019-04-14T04:05:57.208Z,17.75
2019-04-14T04:08:27.677Z,17.15
2019-04-14T04:11:02.019Z,17.30
2019-04-14T04:13:32.312Z,18.05
2019-04-14T04:16:15.922Z,17.15
2019-04-14T04:18:56.169Z,18.20
2019-04-14T04:21:29.044Z,20.45
2019-04-14T04:24:04.298Z,18.30
2019-04-14T04:26:52.065Z,15.98
2019-04-14T04:29:42.035Z,18.05
2019-04-14T04:32:14.249Z,18.30
2019-04-14T04:34:49.092Z,17.40
2019-04-14T04:37:21.405Z,16.87
2019-04-14T04:40:03.014Z,18.10
2019-04-14T04:42:35.123Z,18.40
2019-04-14T04:45:06.647Z,18.73
2019-04-14T04:47:36.509Z,18.62
2019-04-14T04:50:06.977Z,18.10
2019-04-14T04:52:37.084Z,18.23
2019-04-14T04:55:07.246Z,15.83
2019-04-14T04:57:37.364Z,17.95
2019-04-14T05:00:13.372Z,19.52
2019-04-14T05:02:43.910Z,20.05
2019-04-14T05:06:07.416Z,18.65
2019-04-14T05:08:39.162Z,18.70
2019-04-14T05:11:14.359Z,17.55
2019-04-14T05:13:55.527Z,20.70
2019-04-14T05:16:28.209Z,21.00
2019-04-14T05:19:11.426Z,19.92
2019-04-14T05:21:30.005Z,18.85
2019-04-14T05:24:00.699Z,18.62
2019-04-14T05:26:30.915Z,20.25
2019-04-14T05:29:01.427Z,18.05
2019-04-14T05:31:32.076Z,19.25
2019-04-14T05:34:02.260Z,18.30
2019-04-14T05:36:32.535Z,20.95
2019-04-14T05:39:02.604Z,18.75
2019-04-14T05:41:33.047Z,19.25
2019-04-14T05:44:03.563Z,18.50
2019-04-14T05:46:34.477Z,19.73
2019-04-14T05:49:06.565Z,19.20
2019-04-14T05:51:37.231Z,20.55
2019-04-14T05:54:07.807Z,20.27
2019-04-14T05:56:39.676Z,20.35
2019-04-14T05:59:11.354Z,20.65
2019-04-14T06:01:42.058Z,19.40
2019-04-14T06:04:13.517Z,22.13
2019-04-14T06:06:43.629Z,21.57
2019-04-14T06:09:13.737Z,19.80
2019-04-14T06:11:44.893Z,21.80
2019-04-14T06:14:15.737Z,20.43
2019-04-14T06:16:46.344Z,21.73
2019-04-14T06:19:16.438Z,22.25
2019-04-14T06:21:47.446Z,21.48
2019-04-14T06:24:17.539Z,22.05
2019-04-14T06:26:48.637Z,22.00
2019-04-14T06:29:19.647Z,21.00
2019-04-14T06:31:59.999Z,22.02
2019-04-14T06:34:46.409Z,21.20
2019-04-14T06:37:20.521Z,19.55
2019-04-14T06:39:56.149Z,21.68
2019-04-14T06:42:27.225Z,21.17
2019-04-14T06:44:58.389Z,21.17
2019-04-14T06:47:28.483Z,20.60
2019-04-14T06:49:59.513Z,18.90
2019-04-14T06:52:30.323Z,19.97
2019-04-14T06:55:00.307Z,20.17
2019-04-14T06:57:30.409Z,21.00
2019-04-14T07:00:00.256Z,17.70
2019-04-14T07:02:30.215Z,19.40
2019-04-14T07:05:00.054Z,18.13
2019-04-14T07:07:30.950Z,17.63
2019-04-14T07:10:00.826Z,16.80
2019-04-14T07:12:30.802Z,16.97
2019-04-14T07:15:01.566Z,17.83
2019-04-14T07:17:31.573Z,16.40
2019-04-14T07:20:02.589Z,16.80
2019-04-14T07:22:32.529Z,16.30
2019-04-14T07:25:02.310Z,18.27
2019-04-14T07:27:32.267Z,16.70
2019-04-14T07:30:09.598Z,16.60
2019-04-14T07:32:50.289Z,18.70
2019-04-14T07:35:22.034Z,18.43
2019-04-14T07:37:54.726Z,17.80
2019-04-14T07:40:29.987Z,17.50
2019-04-14T07:43:07.486Z,16.63
2019-04-14T07:45:39.233Z,16.33
2019-04-14T07:48:22.862Z,18.50
2019-04-14T07:51:03.366Z,17.63
2019-04-14T07:53:46.881Z,17.90
2019-04-14T07:56:27.221Z,16.03
2019-04-14T07:59:01.498Z,16.30
2019-04-14T08:01:33.127Z,17.10
2019-04-14T08:04:10.952Z,16.27
2019-04-14T08:06:43.650Z,16.27
2019-04-14T08:09:13.775Z,17.00
2019-04-14T08:11:44.814Z,18.17
2019-04-14T08:14:16.610Z,16.53
2019-04-14T08:16:46.322Z,15.97
2019-04-14T08:19:16.319Z,16.77
2019-04-14T08:21:47.441Z,18.10
2019-04-14T08:24:18.464Z,18.23
2019-04-14T08:26:50.557Z,17.07
2019-04-14T08:29:20.409Z,15.90
2019-04-14T08:31:50.418Z,16.40
2019-04-14T08:34:20.554Z,18.10
2019-04-14T08:36:50.629Z,18.83
2019-04-14T08:39:20.466Z,17.63
2019-04-14T08:41:51.806Z,17.90
2019-04-14T08:44:27.046Z,16.37
2019-04-14T08:47:16.707Z,17.43
2019-04-14T08:49:48.478Z,15.50
2019-04-14T08:52:31.834Z,16.83
2019-04-14T08:55:19.114Z,16.70
2019-04-14T08:57:59.153Z,16.13
2019-04-14T09:00:31.711Z,17.00
2019-04-14T09:03:07.275Z,16.50
2019-04-14T09:05:41.686Z,16.47
2019-04-14T09:08:25.507Z,15.93
2019-04-14T09:10:57.259Z,17.47
2019-04-14T09:13:28.297Z,16.93
2019-04-14T09:15:58.130Z,15.27
2019-04-14T09:18:27.854Z,15.73
2019-04-14T09:20:57.821Z,16.50
2019-04-14T09:23:27.950Z,15.33
2019-04-14T09:25:57.791Z,16.00
2019-04-14T09:28:28.010Z,15.93
2019-04-14T09:30:59.407Z,14.67
2019-04-14T09:33:29.515Z,14.10
2019-04-14T09:36:02.298Z,16.63
2019-04-14T09:38:32.952Z,17.27
2019-04-14T09:41:03.878Z,16.33
2019-04-14T09:43:33.847Z,14.03
2019-04-14T09:46:03.943Z,14.30
2019-04-14T09:48:33.798Z,14.53
2019-04-14T09:51:05.154Z,14.00
2019-04-14T09:53:37.058Z,15.20
2019-04-14T09:56:06.758Z,15.67
2019-04-14T09:58:36.722Z,16.13
2019-04-14T10:01:09.021Z,16.30
2019-04-14T10:03:37.966Z,14.37
2019-04-14T10:06:09.180Z,13.53
2019-04-14T10:08:39.293Z,14.10
2019-04-14T10:11:09.393Z,14.60
2019-04-14T10:13:39.505Z,14.00
2019-04-14T10:16:10.591Z,15.40
2019-04-14T10:18:41.648Z,13.10
2019-04-14T10:21:17.538Z,14.80
2019-04-14T10:23:44.523Z,15.80
2019-04-14T10:26:14.360Z,14.70
2019-04-14T10:28:44.058Z,15.10
2019-04-14T10:31:13.806Z,13.43
2019-04-14T10:33:43.784Z,13.70
2019-04-14T10:36:14.873Z,15.47
2019-04-14T10:38:45.966Z,16.13
2019-04-14T10:41:16.994Z,14.33
2019-04-14T10:43:47.119Z,15.97
2019-04-14T10:46:18.558Z,15.00
2019-04-14T10:48:48.703Z,14.13
2019-04-14T10:51:29.453Z,13.93
2019-04-14T10:53:50.338Z,13.57
2019-04-14T10:56:20.338Z,15.67
2019-04-14T10:58:50.181Z,15.40
2019-04-14T11:01:20.157Z,14.23
2019-04-14T11:03:50.266Z,14.47
2019-04-14T11:06:30.827Z,14.97
2019-04-14T11:09:00.653Z,14.10
2019-04-14T11:11:30.462Z,13.60
2019-04-14T11:14:00.178Z,14.67
2019-04-14T11:16:29.866Z,14.77
2019-04-14T11:18:59.586Z,14.03
2019-04-14T11:21:41.639Z,13.47
2019-04-14T11:24:01.378Z,14.30
2019-04-14T11:26:31.510Z,15.90
2019-04-14T11:29:01.337Z,14.10
2019-04-14T11:31:44.827Z,15.57
2019-04-14T11:34:16.530Z,15.23
2019-04-14T11:36:51.862Z,14.07
2019-04-14T11:39:23.463Z,15.37
2019-04-14T11:41:53.570Z,16.77
2019-04-14T11:44:23.700Z,16.30
2019-04-14T11:46:53.777Z,15.60
2019-04-14T11:49:23.898Z,15.23
2019-04-14T11:51:55.411Z,15.87
2019-04-14T11:54:25.885Z,15.47
2019-04-14T11:56:58.933Z,15.23
2019-04-14T11:59:42.012Z,15.73
2019-04-14T12:02:16.030Z,15.30
2019-04-14T12:04:48.562Z,14.63
2019-04-14T12:07:21.018Z,14.53
2019-04-14T12:09:58.286Z,16.00
2019-04-14T12:12:27.982Z,12.70
2019-04-14T12:14:57.682Z,14.60
2019-04-14T12:17:27.420Z,14.30
2019-04-14T12:19:57.454Z,13.00
2019-04-14T12:22:28.157Z,14.37
2019-04-14T12:24:58.360Z,13.83
2019-04-14T12:27:28.212Z,14.07
2019-04-14T12:29:59.176Z,13.07
2019-04-14T12:32:30.661Z,13.70
2019-04-14T12:35:00.522Z,14.70
2019-04-14T12:37:31.141Z,13.20
2019-04-14T12:40:01.093Z,14.23
2019-04-14T12:42:33.763Z,14.00
2019-04-14T12:45:07.534Z,13.03
2019-04-14T12:47:41.932Z,15.40
2019-04-14T12:50:19.710Z,12.40
2019-04-14T12:52:51.506Z,14.27
2019-04-14T12:55:21.606Z,13.70
2019-04-14T12:57:53.349Z,15.90
2019-04-14T13:00:34.030Z,14.37
2019-04-14T13:03:04.923Z,15.13
2019-04-14T13:05:35.737Z,14.70
2019-04-14T13:08:05.442Z,14.70
2019-04-14T13:10:35.185Z,14.17
2019-04-14T13:13:05.322Z,14.50
2019-04-14T13:15:35.430Z,14.33
2019-04-14T13:18:05.691Z,13.83
2019-04-14T13:20:35.794Z,14.30
2019-04-14T13:23:05.967Z,13.83
2019-04-14T13:25:36.065Z,15.07
2019-04-14T13:28:05.906Z,14.90
2019-04-14T13:30:37.521Z,14.87
2019-04-14T13:33:07.647Z,13.97
2019-04-14T13:35:37.474Z,14.80
2019-04-14T13:38:08.435Z,14.57
2019-04-14T13:40:39.569Z,15.03
2019-04-14T13:43:09.396Z,14.33
2019-04-14T13:45:39.351Z,15.30
2019-04-14T13:48:10.087Z,15.30
2019-04-14T13:50:40.795Z,15.37
2019-04-14T13:53:11.819Z,15.40
2019-04-14T13:55:41.654Z,15.37
2019-04-14T13:58:11.358Z,14.30
2019-04-14T14:00:41.050Z,16.33
2019-04-14T14:03:10.742Z,16.47
2019-04-14T14:05:43.598Z,15.40
2019-04-14T14:08:13.971Z,14.77
2019-04-14T14:10:44.266Z,15.30
2019-04-14T14:13:16.003Z,13.43
2019-04-14T14:16:04.542Z,15.17
2019-04-14T14:18:36.150Z,14.10
2019-04-14T14:21:25.704Z,14.00
2019-04-14T14:24:03.561Z,14.73
2019-04-14T14:26:37.734Z,13.67
2019-04-14T14:29:08.788Z,14.57
2019-04-14T14:31:39.808Z,14.50
2019-04-14T14:34:09.942Z,13.83
2019-04-14T14:36:40.046Z,14.07
2019-04-14T14:39:10.837Z,13.97
2019-04-14T14:41:40.748Z,14.30
2019-04-14T14:44:11.636Z,14.20
2019-04-14T14:46:59.348Z,15.20
2019-04-14T14:49:31.331Z,14.90
2019-04-14T14:52:08.458Z,14.67
2019-04-14T14:54:39.116Z,14.00
2019-04-14T14:57:09.882Z,14.10
2019-04-14T14:59:39.986Z,15.07
2019-04-14T15:02:10.086Z,14.40
2019-04-14T15:04:40.194Z,12.80
2019-04-14T15:07:10.065Z,14.53
2019-04-14T15:09:40.015Z,13.23
2019-04-14T15:12:10.830Z,12.63
2019-04-14T15:14:40.788Z,12.47
2019-04-14T15:17:10.954Z,12.60
2019-04-14T15:19:41.017Z,11.93
2019-04-14T15:22:11.050Z,13.50
2019-04-14T15:24:41.227Z,13.00
2019-04-14T15:27:11.338Z,12.63
2019-04-14T15:29:41.538Z,12.63
2019-04-14T15:32:11.706Z,11.60
2019-04-14T15:34:41.803Z,12.67
2019-04-14T15:37:11.931Z,11.80
2019-04-14T15:39:41.770Z,11.57
2019-04-14T15:42:11.758Z,10.63
2019-04-14T15:44:42.840Z,11.40
2019-04-14T15:47:12.941Z,10.80
2019-04-14T15:49:42.806Z,11.60
2019-04-14T15:52:12.518Z,10.53
2019-04-14T15:54:43.416Z,9.53
2019-04-14T15:57:25.145Z,11.20
2019-04-14T16:00:08.755Z,10.07
2019-04-14T16:02:52.074Z,9.60
2019-04-14T16:05:23.683Z,11.23
2019-04-14T16:08:10.959Z,10.63
2019-04-14T16:10:51.274Z,11.07
2019-04-14T16:13:25.656Z,10.70
2019-04-14T16:16:06.523Z,10.67
2019-04-14T16:18:54.406Z,10.10
2019-04-14T16:21:24.508Z,10.30
2019-04-14T16:23:54.598Z,11.30
2019-04-14T16:26:26.410Z,11.00
2019-04-14T16:28:58.135Z,10.27
2019-04-14T16:31:45.662Z,11.07
2019-04-14T16:34:17.254Z,11.23
2019-04-14T16:36:48.987Z,10.53
2019-04-14T16:39:18.801Z,9.87
2019-04-14T16:41:48.781Z,9.60
2019-04-14T16:44:19.598Z,10.40
2019-04-14T16:46:50.511Z,9.53
2019-04-14T16:49:20.346Z,9.63
2019-04-14T16:51:59.159Z,9.57
2019-04-14T16:54:45.878Z,8.90
2019-04-14T16:57:32.402Z,9.10
2019-04-14T17:00:04.475Z,9.13
2019-04-14T17:02:35.466Z,9.13
2019-04-14T17:05:06.018Z,8.50
2019-04-14T17:07:36.174Z,8.13
2019-04-14T17:10:07.068Z,7.40
2019-04-14T17:12:37.083Z,8.27
2019-04-14T17:15:14.778Z,8.57
2019-04-14T17:18:04.070Z,8.83
2019-04-14T17:20:44.538Z,6.70
2019-04-14T17:23:30.834Z,7.00
2019-04-14T17:26:09.130Z,7.15
2019-04-14T17:28:53.548Z,7.60
2019-04-14T17:31:33.655Z,8.68
2019-04-14T17:34:15.900Z,6.33
2019-04-14T17:36:53.218Z,6.30
2019-04-14T17:39:24.966Z,7.85
2019-04-14T17:42:02.795Z,6.00
2019-04-14T17:44:40.158Z,6.60
2019-04-14T17:47:12.727Z,6.47
2019-04-14T17:50:00.364Z,6.10
2019-04-14T17:52:37.546Z,6.92
2019-04-14T17:55:09.502Z,6.50
2019-04-14T17:57:55.699Z,6.72
2019-04-14T18:00:30.278Z,6.17
2019-04-14T18:03:07.940Z,6.15
2019-04-14T18:05:39.723Z,6.07
2019-04-14T18:08:14.994Z,6.30
2019-04-14T18:10:46.970Z,6.60
2019-04-14T18:13:23.832Z,6.28
2019-04-14T18:16:13.551Z,5.95
2019-04-14T18:18:48.127Z,6.33
2019-04-14T18:21:18.220Z,6.55
2019-04-14T18:23:48.306Z,5.80
2019-04-14T18:26:18.400Z,6.90
2019-04-14T18:29:08.006Z,7.03
2019-04-14T18:31:40.662Z,8.08
2019-04-14T18:34:17.690Z,7.87
2019-04-14T18:36:55.413Z,7.40
2019-04-14T18:39:44.978Z,6.90
2019-04-14T18:42:25.592Z,5.87
2019-04-14T18:45:14.318Z,6.97
2019-04-14T18:47:48.682Z,7.42
2019-04-14T18:50:36.143Z,7.60
2019-04-14T18:53:07.784Z,6.87
2019-04-14T18:55:44.932Z,7.27
2019-04-14T18:58:32.952Z,7.78
2019-04-14T19:01:16.835Z,6.53
2019-04-14T19:03:46.698Z,6.60
2019-04-14T19:06:16.375Z,7.23
2019-04-14T19:08:46.331Z,7.80
2019-04-14T19:11:37.918Z,7.60
2019-04-14T19:14:08.004Z,6.80
2019-04-14T19:16:45.541Z,6.70
2019-04-14T19:19:17.233Z,6.90
2019-04-14T19:21:47.978Z,7.10
2019-04-14T19:24:17.917Z,6.77
2019-04-14T19:26:48.002Z,6.80
2019-04-14T19:29:17.846Z,6.90
2019-04-14T19:31:48.510Z,7.65
2019-04-14T19:34:18.458Z,7.00
2019-04-14T19:36:48.552Z,7.00
2019-04-14T19:39:18.651Z,7.33
2019-04-14T19:41:48.750Z,6.75
2019-04-14T19:44:18.607Z,6.75
2019-04-14T19:46:48.283Z,6.92
2019-04-14T19:49:18.252Z,7.42
2019-04-14T19:51:49.292Z,7.25
2019-04-14T19:54:19.104Z,7.30
2019-04-14T19:56:48.795Z,6.10
2019-04-14T19:59:18.755Z,7.83
2019-04-14T20:01:48.850Z,7.50
2019-04-14T20:04:18.967Z,7.20
2019-04-14T20:06:49.107Z,8.10
2019-04-14T20:09:19.072Z,7.37
2019-04-14T20:11:49.291Z,7.30
2019-04-14T20:14:19.394Z,7.08
2019-04-14T20:17:06.278Z,7.20
2019-04-14T20:19:37.978Z,7.20
2019-04-14T20:22:16.294Z,8.75
2019-04-14T20:24:53.178Z,7.67
2019-04-14T20:27:33.471Z,6.70
2019-04-14T20:30:08.001Z,8.23
2019-04-14T20:32:50.649Z,6.87
2019-04-14T20:35:24.402Z,7.55
2019-04-14T20:37:54.539Z,7.28
2019-04-14T20:40:25.628Z,7.92
2019-04-14T20:42:55.736Z,7.83
2019-04-14T20:45:25.581Z,7.65
2019-04-14T20:47:55.302Z,6.62
2019-04-14T20:50:25.028Z,9.50
2019-04-14T20:52:54.988Z,9.23
2019-04-14T20:55:25.074Z,7.87
2019-04-14T20:57:54.974Z,8.00
2019-04-14T21:00:25.713Z,7.65
2019-04-14T21:03:03.280Z,7.15
2019-04-14T21:05:37.536Z,7.87
2019-04-14T21:08:25.002Z,8.20
2019-04-14T21:11:02.009Z,6.53
2019-04-14T21:13:33.751Z,8.70
2019-04-14T21:16:12.888Z,8.60
2019-04-14T21:18:47.356Z,7.72
2019-04-14T21:21:18.831Z,7.67
2019-04-14T21:23:50.444Z,7.87
2019-04-14T21:26:26.404Z,7.50
2019-04-14T21:29:15.706Z,7.85
2019-04-14T21:31:50.880Z,8.10
2019-04-14T21:34:26.191Z,9.73
2019-04-14T21:36:57.542Z,10.00
2019-04-14T21:39:35.142Z,10.45
2019-04-14T21:42:05.788Z,8.27
2019-04-14T21:44:35.899Z,7.80
2019-04-14T21:47:05.992Z,8.78
2019-04-14T21:49:38.134Z,7.20
2019-04-14T21:52:09.852Z,7.87
2019-04-14T21:54:41.596Z,7.83
2019-04-14T21:57:13.340Z,7.62
2019-04-14T21:59:55.128Z,7.85
2019-04-14T22:02:43.627Z,8.00
2019-04-14T22:05:24.567Z,8.23
2019-04-14T22:08:14.591Z,8.67
2019-04-14T22:10:55.800Z,9.55
2019-04-14T22:13:25.706Z,8.20
2019-04-14T22:15:56.656Z,8.25
2019-04-14T22:18:26.741Z,8.07
2019-04-14T22:20:56.847Z,9.70
2019-04-14T22:23:26.670Z,9.30
2019-04-14T22:25:56.660Z,8.23
2019-04-14T22:28:26.738Z,8.87
2019-04-14T22:30:57.828Z,9.78
2019-04-14T22:33:27.947Z,10.27
2019-04-14T22:35:58.262Z,8.90
2019-04-14T22:38:28.111Z,9.60
2019-04-14T22:40:57.794Z,9.93
2019-04-14T22:43:27.546Z,9.37
2019-04-14T22:45:57.504Z,9.68
2019-04-14T22:48:27.387Z,10.40
2019-04-14T22:50:57.340Z,12.37
2019-04-14T22:53:27.444Z,10.75
2019-04-14T22:55:57.562Z,10.82
2019-04-14T22:58:27.688Z,11.35
2019-04-14T23:01:02.222Z,11.80
2019-04-14T23:03:38.747Z,10.53
2019-04-14T23:06:15.846Z,11.67
2019-04-14T23:08:48.587Z,10.50
2019-04-14T23:11:37.664Z,10.90
2019-04-14T23:14:26.614Z,10.50
2019-04-14T23:16:58.212Z,10.30
2019-04-14T23:19:42.398Z,10.03
2019-04-14T23:22:23.197Z,12.00
2019-04-14T23:24:54.087Z,11.40
2019-04-14T23:27:24.056Z,11.88
2019-04-14T23:29:54.247Z,10.73
2019-04-14T23:32:24.372Z,9.80
2019-04-14T23:34:54.472Z,10.63
2019-04-14T23:37:24.556Z,9.50
2019-04-14T23:39:55.346Z,11.30
2019-04-14T23:42:26.325Z,10.93
2019-04-14T23:44:56.427Z,12.40
2019-04-14T23:47:26.522Z,11.53
2019-04-14T23:49:56.618Z,10.40
2019-04-14T23:52:26.736Z,11.47
2019-04-14T23:54:56.822Z,11.87
2019-04-14T23:57:27.016Z,10.93
2019-04-14T23:59:57.126Z,12.13
